Time;durP1;ratioP1;P1;durP2;ratioP2;P2;SDS_P1;SDS_P2;PMS_P1;PMS_P2;Temp;Humidity;BMP_temperature;BMP_pressure;BME280_temperature;BME280_humidity;BME280_pressure;Samples;Min_cycle;Max_cycle;Signal;HPM_P1;HPM_P2
2023/07/13 00:00:25;;;;;;;1.37;1.20;;;;;;;20.13;63.23;98029.06;5071903;28;20204;-80
2023/07/13 00:02:53;;;;;;;2.93;1.20;;;;;;;20.10;63.53;98018.66;5072631;28;20263;-80
2023/07/13 00:05:20;;;;;;;3.03;1.30;;;;;;;20.08;63.59;98020.66;5072649;28;20211;-80
2023/07/13 00:07:48;;;;;;;1.67;1.10;;;;;;;20.04;63.17;98016.59;5072599;28;20218;-80
2023/07/13 00:10:15;;;;;;;3.33;1.00;;;;;;;19.99;63.63;98007.41;5071908;28;20218;-80
2023/07/13 00:12:42;;;;;;;2.83;1.20;;;;;;;20.00;63.13;98001.84;5072190;28;20329;-80
2023/07/13 00:15:13;;;;;;;1.53;1.10;;;;;;;19.92;63.42;98006.34;5072687;28;20218;-80
2023/07/13 00:17:40;;;;;;;3.63;1.40;;;;;;;19.89;63.88;98004.03;5072257;28;20225;-80
2023/07/13 00:20:08;;;;;;;2.43;1.20;;;;;;;19.84;63.96;98007.22;5071876;28;20242;-80
2023/07/13 00:22:35;;;;;;;3.90;1.13;;;;;;;19.84;63.69;98001.84;5072026;28;20767;-80
2023/07/13 00:25:03;;;;;;;2.47;1.10;;;;;;;19.82;63.55;98001.16;5072308;28;20216;-80
2023/07/13 00:27:31;;;;;;;2.30;1.30;;;;;;;19.76;63.38;97999.13;5071980;28;20306;-79
2023/07/13 00:29:58;;;;;;;1.27;1.17;;;;;;;19.76;63.39;98009.88;5071651;28;20230;-80
2023/07/13 00:32:25;;;;;;;2.97;1.10;;;;;;;19.69;63.63;98008.03;5071221;28;20227;-80
2023/07/13 00:34:52;;;;;;;1.23;1.10;;;;;;;19.64;63.52;98000.47;5072081;28;20212;-80
2023/07/13 00:37:19;;;;;;;1.70;1.13;;;;;;;19.64;63.37;98008.50;5071954;28;20208;-80
2023/07/13 00:39:45;;;;;;;5.67;1.30;;;;;;;19.53;64.21;98008.84;5071254;28;20670;-79
2023/07/13 00:42:13;;;;;;;1.63;1.17;;;;;;;19.44;64.44;98014.34;5071617;28;20231;-80
2023/07/13 00:44:40;;;;;;;3.37;1.20;;;;;;;19.32;65.48;98021.84;5072018;28;20207;-79
2023/07/13 00:47:07;;;;;;;1.53;1.30;;;;;;;19.33;65.53;98028.88;5071719;28;20207;-79
2023/07/13 00:49:36;;;;;;;1.50;1.10;;;;;;;19.20;66.39;98025.81;5071159;28;20224;-80
2023/07/13 00:52:07;;;;;;;1.63;1.13;;;;;;;19.09;67.19;98023.41;5071542;28;20222;-80
2023/07/13 00:54:40;;;;;;;2.47;1.20;;;;;;;19.02;67.78;98027.72;5071574;28;20222;-80
2023/07/13 00:57:12;;;;;;;2.17;1.53;;;;;;;19.01;67.63;98033.25;5071666;28;20571;-80
2023/07/13 00:59:42;;;;;;;1.87;1.23;;;;;;;18.98;68.38;98030.88;5070342;28;20674;-80
2023/07/13 01:02:09;;;;;;;2.63;1.30;;;;;;;18.87;68.69;98042.72;5071360;28;20204;-80
2023/07/13 01:04:36;;;;;;;3.33;1.50;;;;;;;18.92;67.55;98026.16;5071476;28;20203;-80
2023/07/13 01:07:03;;;;;;;1.57;1.27;;;;;;;18.89;67.53;98038.03;5071243;28;20215;-80
2023/07/13 01:09:29;;;;;;;3.23;1.20;;;;;;;18.90;67.42;98042.41;5071079;28;20588;-80
2023/07/13 01:11:56;;;;;;;3.27;1.20;;;;;;;18.80;68.49;98044.38;5071335;28;20235;-80
2023/07/13 01:14:22;;;;;;;3.70;1.40;;;;;;;18.81;68.76;98045.19;5071421;28;20222;-80
2023/07/13 01:16:51;;;;;;;3.70;1.40;;;;;;;18.77;67.76;98041.19;5071253;28;20212;-80
2023/07/13 01:19:35;;;;;;;1.30;1.20;;;;;;;18.70;68.64;98054.34;5070807;28;20532;-80
2023/07/13 01:22:04;;;;;;;2.33;1.27;;;;;;;18.63;69.86;98058.66;5071280;28;20211;-80
2023/07/13 01:24:31;;;;;;;1.50;1.37;;;;;;;18.53;70.38;98055.22;5071420;28;20211;-80
2023/07/13 01:26:57;;;;;;;1.67;1.30;;;;;;;18.47;70.16;98055.84;5071196;28;20218;-80
2023/07/13 01:29:23;;;;;;;2.57;1.30;;;;;;;18.51;69.23;98046.53;5070218;28;20218;-80
2023/07/13 01:31:49;;;;;;;2.50;1.57;;;;;;;18.40;70.65;98065.50;5070995;28;20211;-80
2023/07/13 01:34:16;;;;;;;1.63;1.20;;;;;;;18.32;71.90;98073.50;5071062;28;20215;-80
2023/07/13 01:36:42;;;;;;;2.53;1.30;;;;;;;18.26;71.68;98067.88;5071125;28;20214;-80
2023/07/13 01:39:10;;;;;;;2.67;1.17;;;;;;;18.17;72.66;98074.97;5070537;28;20207;-80
2023/07/13 01:41:37;;;;;;;3.00;1.50;;;;;;;18.09;73.71;98088.28;5071061;28;20218;-80
2023/07/13 01:44:03;;;;;;;1.77;1.23;;;;;;;17.99;74.75;98092.88;5070780;28;20231;-80
2023/07/13 01:46:30;;;;;;;2.17;1.30;;;;;;;17.86;75.43;98097.75;5071160;28;20218;-79
2023/07/13 01:48:56;;;;;;;1.80;1.20;;;;;;;17.75;76.34;98105.19;5070754;28;20218;-80
2023/07/13 01:51:23;;;;;;;2.20;1.20;;;;;;;17.63;76.98;98104.53;5070436;28;20274;-79
2023/07/13 01:53:49;;;;;;;2.57;1.40;;;;;;;17.48;78.13;98108.72;5070960;28;20242;-79
2023/07/13 01:56:17;;;;;;;1.60;1.40;;;;;;;17.42;78.91;98113.78;5071055;28;20591;-79
2023/07/13 01:58:45;;;;;;;3.07;1.33;;;;;;;17.32;80.00;98108.47;5070839;28;20208;-79
2023/07/13 02:01:11;;;;;;;1.57;1.30;;;;;;;17.28;79.91;98115.13;5070049;28;20207;-79
2023/07/13 02:03:38;;;;;;;3.60;1.60;;;;;;;17.28;79.46;98116.94;5070853;28;20226;-80
2023/07/13 02:06:04;;;;;;;2.00;1.30;;;;;;;17.29;77.87;98110.59;5071130;28;20234;-80
2023/07/13 02:08:31;;;;;;;2.83;1.57;;;;;;;17.35;77.24;98102.84;5070834;28;20211;-80
2023/07/13 02:10:58;;;;;;;1.83;1.20;;;;;;;17.40;77.95;98105.97;5070166;28;20571;-80
2023/07/13 02:13:26;;;;;;;2.40;1.43;;;;;;;17.38;78.73;98113.25;5070574;28;20309;-80
2023/07/13 02:15:53;;;;;;;2.70;1.50;;;;;;;17.31;78.79;98114.00;5070628;28;20207;-79
2023/07/13 02:18:19;;;;;;;1.53;1.30;;;;;;;17.29;79.94;98124.81;5070934;28;20207;-79
2023/07/13 02:20:46;;;;;;;2.30;1.40;;;;;;;17.24;80.16;98116.41;5070087;28;20214;-84
2023/07/13 02:23:12;;;;;;;2.10;1.50;;;;;;;17.20;80.37;98123.00;5070493;28;20231;-84
2023/07/13 02:25:39;;;;;;;2.00;1.60;;;;;;;17.26;77.25;98105.56;5070475;28;20215;-84
2023/07/13 02:28:06;;;;;;;2.50;1.40;;;;;;;17.29;76.54;98108.78;5070511;28;20208;-84
2023/07/13 02:30:35;;;;;;;2.60;1.30;;;;;;;17.28;76.94;98114.25;5069669;28;20218;-83
2023/07/13 02:33:02;;;;;;;1.83;1.30;;;;;;;17.26;77.41;98114.41;5070264;28;20234;-84
2023/07/13 02:35:28;;;;;;;1.47;1.30;;;;;;;17.27;77.96;98118.78;5070510;28;20247;-83
2023/07/13 02:37:55;;;;;;;2.00;1.27;;;;;;;17.26;78.46;98113.59;5070560;28;20215;-84
2023/07/13 02:40:21;;;;;;;2.47;1.40;;;;;;;17.23;78.32;98109.38;5069699;28;20215;-84
2023/07/13 02:42:48;;;;;;;3.53;1.70;;;;;;;17.20;78.84;98123.00;5070292;28;20227;-84
2023/07/13 02:45:14;;;;;;;2.40;1.37;;;;;;;17.16;78.78;98123.47;5070515;28;20211;-84
2023/07/13 02:47:42;;;;;;;1.30;1.20;;;;;;;17.12;79.25;98122.91;5070613;28;20572;-84
2023/07/13 02:50:09;;;;;;;2.40;1.30;;;;;;;17.08;79.69;98132.19;5069926;28;20250;-84
2023/07/13 02:52:36;;;;;;;1.40;1.30;;;;;;;17.05;79.96;98132.50;5070524;28;20236;-84
2023/07/13 02:55:03;;;;;;;1.67;1.57;;;;;;;17.07;79.93;98132.38;5071674;28;20658;-84
2023/07/13 02:57:30;;;;;;;4.30;1.43;;;;;;;17.09;79.33;98123.22;5073817;28;20214;-84
2023/07/13 02:59:56;;;;;;;2.97;1.50;;;;;;;17.11;79.50;98131.06;5073642;28;20219;-84
2023/07/13 03:02:23;;;;;;;3.23;1.30;;;;;;;17.10;79.73;98130.25;5073763;28;20227;-84
2023/07/13 03:04:51;;;;;;;3.47;1.50;;;;;;;17.10;79.94;98138.25;5073876;28;20305;-84
2023/07/13 03:07:17;;;;;;;2.07;1.43;;;;;;;17.09;80.47;98133.91;5073801;28;20569;-84
2023/07/13 03:09:44;;;;;;;3.07;1.50;;;;;;;17.09;80.53;98138.38;5073073;28;20231;-84
2023/07/13 03:12:10;;;;;;;2.93;1.50;;;;;;;17.02;80.85;98135.44;5073470;28;20246;-84
2023/07/13 03:14:37;;;;;;;2.17;1.70;;;;;;;17.03;81.13;98136.31;5073806;28;20219;-84
2023/07/13 03:17:03;;;;;;;3.17;1.20;;;;;;;16.98;81.58;98136.75;5073968;28;20212;-84
2023/07/13 03:19:30;;;;;;;2.07;1.43;;;;;;;17.00;82.27;98144.63;5072912;28;20211;-84
2023/07/13 03:21:58;;;;;;;1.97;1.40;;;;;;;17.01;82.70;98152.47;5073918;28;20211;-84
2023/07/13 03:24:25;;;;;;;2.37;1.30;;;;;;;17.07;82.47;98151.06;5089072;22;20286;-89
2023/07/13 03:26:52;;;;;;;1.60;1.40;;;;;;;17.11;81.93;98150.63;5073497;28;20554;-89
2023/07/13 03:29:18;;;;;;;2.37;1.50;;;;;;;17.17;81.62;98150.03;5073381;28;20211;-89
2023/07/13 03:31:45;;;;;;;3.70;1.70;;;;;;;17.23;81.36;98154.78;5073781;28;20203;-89
2023/07/13 03:34:11;;;;;;;3.73;1.60;;;;;;;17.32;80.65;98156.56;5073781;28;20601;-89
2023/07/13 03:36:38;;;;;;;2.77;1.30;;;;;;;17.44;79.04;98150.06;5073656;28;20212;-89
2023/07/13 03:39:08;;;;;;;3.13;1.40;;;;;;;17.59;77.58;98151.28;5073319;28;20685;-89
2023/07/13 03:41:34;;;;;;;2.83;1.70;;;;;;;17.73;75.58;98150.75;5073551;28;20306;-89
2023/07/13 03:44:01;;;;;;;3.37;1.37;;;;;;;17.86;73.93;98140.53;5073208;28;20223;-89
2023/07/13 03:46:27;;;;;;;2.33;1.60;;;;;;;17.99;73.76;98151.72;5073293;28;20207;-89
2023/07/13 03:48:54;;;;;;;1.50;1.40;;;;;;;18.01;73.30;98144.41;5073080;28;20218;-89
2023/07/13 03:51:21;;;;;;;1.63;1.40;;;;;;;18.04;72.88;98145.94;5072378;28;20203;-89
2023/07/13 03:53:48;;;;;;;2.37;1.40;;;;;;;18.06;72.52;98147.47;5072677;28;20239;-89
2023/07/13 03:56:17;;;;;;;3.00;1.60;;;;;;;18.09;72.87;98152.50;5072990;28;20204;-89
2023/07/13 03:58:46;;;;;;;3.23;1.30;;;;;;;18.14;73.02;98160.91;5072895;28;20751;-89
2023/07/13 04:01:15;;;;;;;2.47;1.40;;;;;;;18.17;72.37;98149.06;5072204;28;20211;-89
2023/07/13 04:03:42;;;;;;;2.07;1.40;;;;;;;18.14;72.56;98155.56;5072713;28;20255;-89
2023/07/13 04:06:20;;;;;;;1.70;1.50;;;;;;;18.10;72.64;98153.34;5072597;28;20211;-89
2023/07/13 04:08:46;;;;;;;2.03;1.40;;;;;;;18.08;73.34;98161.53;5072822;28;20207;-89
2023/07/13 04:11:13;;;;;;;2.13;1.33;;;;;;;18.02;73.90;98159.44;5071912;28;20219;-89
2023/07/13 04:13:40;;;;;;;3.40;1.53;;;;;;;17.98;74.88;98166.09;5072601;28;20235;-89
2023/07/13 04:16:07;;;;;;;2.30;1.50;;;;;;;17.97;75.44;98169.75;5072759;28;20207;-89
2023/07/13 04:18:33;;;;;;;2.33;1.40;;;;;;;17.93;74.29;98165.69;5076155;28;20207;-89
2023/07/13 04:21:00;;;;;;;2.90;1.40;;;;;;;17.91;74.39;98164.19;5085666;28;20217;-89
2023/07/13 04:23:26;;;;;;;2.77;1.50;;;;;;;17.90;75.14;98174.03;5093478;28;20235;-89
2023/07/13 04:25:54;;;;;;;2.70;1.30;;;;;;;17.94;73.83;98170.06;5093992;28;20215;-89
2023/07/13 04:28:22;;;;;;;3.90;1.70;;;;;;;17.98;74.19;98171.44;5092314;28;20215;-89
2023/07/13 04:30:50;;;;;;;2.87;1.67;;;;;;;18.04;73.36;98176.16;5084355;28;20208;-89
2023/07/13 04:33:17;;;;;;;1.53;1.43;;;;;;;18.10;73.34;98169.41;5081690;28;20227;-89
2023/07/13 04:35:46;;;;;;;2.83;1.37;;;;;;;18.13;73.55;98175.28;5075547;28;20265;-90
2023/07/13 04:38:14;;;;;;;2.63;1.30;;;;;;;18.15;72.74;98165.25;5074323;28;20211;-89
2023/07/13 04:40:41;;;;;;;3.53;1.60;;;;;;;18.13;72.85;98161.91;5071135;28;20214;-89
2023/07/13 04:43:07;;;;;;;2.20;1.60;;;;;;;18.07;72.81;98164.34;5072054;28;20563;-89
2023/07/13 04:45:36;;;;;;;2.00;1.30;;;;;;;17.98;72.76;98173.28;5072043;28;20211;-89
2023/07/13 04:48:04;;;;;;;1.77;1.50;;;;;;;17.88;73.20;98176.03;5071890;28;20224;-89
2023/07/13 04:50:31;;;;;;;1.63;1.50;;;;;;;17.81;74.03;98180.25;5071013;28;20212;-89
2023/07/13 04:52:58;;;;;;;3.80;1.40;;;;;;;17.77;74.26;98184.25;5071813;28;20602;-89
2023/07/13 04:55:24;;;;;;;1.90;1.50;;;;;;;17.70;74.77;98185.84;5071996;28;20591;-89
2023/07/13 04:57:51;;;;;;;1.47;1.37;;;;;;;17.68;75.42;98195.81;5071951;28;20207;-90
2023/07/13 05:00:18;;;;;;;2.57;1.57;;;;;;;17.65;75.16;98196.13;5070882;28;20215;-89
2023/07/13 05:02:46;;;;;;;3.10;1.57;;;;;;;17.65;75.48;98190.78;5071454;28;20231;-90
2023/07/13 05:05:14;;;;;;;4.50;1.50;;;;;;;17.72;75.14;98197.22;5071799;28;20261;-89
2023/07/13 05:07:40;;;;;;;1.83;1.50;;;;;;;17.83;73.66;98185.47;5071691;28;20505;-89
2023/07/13 05:10:09;;;;;;;1.43;1.30;;;;;;;17.99;72.82;98178.47;5070965;28;20204;-89
2023/07/13 05:12:35;;;;;;;2.20;1.40;;;;;;;18.16;72.59;98184.84;5071461;28;20252;-89
2023/07/13 05:15:02;;;;;;;3.13;1.60;;;;;;;18.58;71.38;98185.91;5071337;28;20599;-89
2023/07/13 05:17:29;;;;;;;4.07;1.57;;;;;;;19.08;69.70;98177.09;5070990;28;20739;-89
2023/07/13 05:19:56;;;;;;;2.57;1.30;;;;;;;19.40;68.43;98174.66;5070615;28;20234;-89
2023/07/13 05:22:24;;;;;;;2.60;1.50;;;;;;;19.54;66.02;98166.03;5071350;28;20207;-89
2023/07/13 05:24:50;;;;;;;2.53;1.57;;;;;;;19.54;65.76;98166.03;5071303;28;20211;-88
2023/07/13 05:27:17;;;;;;;3.80;1.73;;;;;;;19.55;66.23;98182.94;5071341;28;20214;-88
2023/07/13 05:29:44;;;;;;;4.23;1.73;;;;;;;19.45;67.02;98177.69;5070618;28;20231;-89
2023/07/13 05:32:11;;;;;;;3.00;1.50;;;;;;;19.43;66.74;98174.34;5071220;28;20215;-90
2023/07/13 05:34:37;;;;;;;3.33;2.17;;;;;;;19.41;66.16;98175.50;5071010;28;20231;-90
2023/07/13 05:37:04;;;;;;;2.97;1.60;;;;;;;19.32;67.11;98177.28;5071448;28;20214;-89
2023/07/13 05:39:32;;;;;;;4.33;1.63;;;;;;;19.30;68.07;98184.66;5070475;28;20211;-89
2023/07/13 05:41:58;;;;;;;4.40;1.77;;;;;;;19.26;69.07;98179.78;5071092;28;20580;-85
2023/07/13 05:44:25;;;;;;;3.27;1.77;;;;;;;19.31;68.26;98180.13;5070688;28;20238;-83
2023/07/13 05:46:51;;;;;;;3.53;1.60;;;;;;;19.31;68.66;98182.78;5071393;28;20233;-85
2023/07/13 05:49:18;;;;;;;3.20;1.70;;;;;;;19.35;69.40;98193.06;5070090;28;20557;-84
2023/07/13 05:51:44;;;;;;;1.80;1.70;;;;;;;19.29;70.22;98195.53;5071150;28;20324;-82
2023/07/13 05:54:11;;;;;;;2.77;1.80;;;;;;;19.26;70.42;98203.91;5070808;28;20238;-79
2023/07/13 05:56:38;;;;;;;2.57;1.70;;;;;;;19.26;69.78;98204.72;5070991;28;20226;-80
2023/07/13 05:59:05;;;;;;;2.83;1.87;;;;;;;19.29;69.53;98204.41;5070897;28;20207;-80
2023/07/13 06:01:32;;;;;;;3.23;2.10;;;;;;;19.44;67.59;98192.09;5070878;28;20211;-80
2023/07/13 06:03:58;;;;;;;3.20;1.80;;;;;;;19.56;67.00;98187.31;5071101;28;20235;-81
2023/07/13 06:06:25;;;;;;;2.30;1.70;;;;;;;20.01;66.21;98190.50;5070926;28;20222;-82
2023/07/13 06:08:51;;;;;;;4.40;2.13;;;;;;;20.77;63.65;98182.09;5070869;28;20211;-81
2023/07/13 06:11:20;;;;;;;3.53;1.63;;;;;;;21.41;59.52;98167.75;5070062;28;20583;-82
2023/07/13 06:13:48;;;;;;;3.10;1.83;;;;;;;21.83;57.61;98161.03;5070930;28;20231;-81
2023/07/13 06:16:15;;;;;;;3.00;1.70;;;;;;;22.17;56.00;98161.53;5071338;28;20282;-81
2023/07/13 06:18:43;;;;;;;3.63;1.77;;;;;;;22.46;53.07;98145.56;5071369;28;20301;-83
2023/07/13 06:21:11;;;;;;;3.00;1.70;;;;;;;22.64;53.36;98159.56;5070865;28;20207;-81
2023/07/13 06:23:38;;;;;;;2.27;1.80;;;;;;;22.56;53.37;98161.50;5070867;28;20253;-83
2023/07/13 06:26:05;;;;;;;2.00;1.50;;;;;;;22.41;52.26;98147.94;5071028;28;20211;-84
2023/07/13 06:28:33;;;;;;;6.70;1.77;;;;;;;22.44;51.31;98152.16;5071063;28;20203;-85
2023/07/13 06:31:01;;;;;;;3.27;1.87;;;;;;;22.35;51.56;98164.78;5073284;28;20298;-86
2023/07/13 06:33:28;;;;;;;4.10;1.87;;;;;;;22.08;50.74;98173.34;5074812;28;20599;-81
2023/07/13 06:35:55;;;;;;;3.50;2.10;;;;;;;21.72;52.45;98193.75;5074909;28;20647;-80
2023/07/13 06:38:22;;;;;;;1.53;1.43;;;;;;;21.68;53.31;98207.69;5074302;28;20203;-78
2023/07/13 06:40:48;;;;;;;2.10;1.70;;;;;;;21.74;52.44;98202.47;5071512;28;20452;-81
2023/07/13 06:43:15;;;;;;;2.53;1.60;;;;;;;22.08;52.33;98202.97;5071124;28;20235;-81
2023/07/13 06:45:47;;;;;;;3.37;1.57;;;;;;;22.86;50.07;98196.44;5073833;28;20207;-84
2023/07/13 06:48:15;;;;;;;3.90;1.63;;;;;;;23.73;49.13;98196.63;5073799;28;20276;-81
2023/07/13 06:50:42;;;;;;;1.77;1.43;;;;;;;24.20;44.88;98174.59;5073542;28;20214;-83
2023/07/13 06:53:09;;;;;;;3.20;1.70;;;;;;;24.12;44.05;98188.19;5074063;28;20250;-82
2023/07/13 06:55:35;;;;;;;2.13;1.33;;;;;;;23.91;45.36;98199.81;5074344;28;20254;-76
2023/07/13 06:58:02;;;;;;;2.00;1.20;;;;;;;23.87;43.93;98187.69;5073953;28;20216;-76
2023/07/13 07:00:28;;;;;;;5.10;1.50;;;;;;;24.01;43.75;98188.72;5073206;28;20203;-76
2023/07/13 07:02:55;;;;;;;1.93;1.37;;;;;;;24.20;43.95;98193.50;5073819;28;20346;-76
2023/07/13 07:05:23;;;;;;;2.57;1.53;;;;;;;24.20;44.06;98201.63;5073758;28;20199;-80
2023/07/13 07:07:51;;;;;;;2.90;1.50;;;;;;;24.16;44.55;98203.88;5074349;28;20582;-80
2023/07/13 07:10:17;;;;;;;3.07;1.63;;;;;;;23.64;44.61;98208.50;5073179;28;20620;-80
2023/07/13 07:12:44;;;;;;;3.43;1.57;;;;;;;23.30;45.55;98210.91;5073869;28;20240;-80
2023/07/13 07:15:11;;;;;;;3.10;1.50;;;;;;;22.87;45.93;98211.56;5073626;28;20262;-80
2023/07/13 07:17:37;;;;;;;2.20;1.47;;;;;;;22.55;46.62;98211.81;5074076;28;20214;-80
2023/07/13 07:20:05;;;;;;;2.93;1.60;;;;;;;22.36;47.71;98220.34;5073066;28;20207;-78
2023/07/13 07:22:33;;;;;;;2.60;1.63;;;;;;;22.24;48.98;98232.50;5074068;28;20575;-79
2023/07/13 07:25:00;;;;;;;2.53;1.43;;;;;;;22.26;47.74;98219.69;5073445;28;20204;-79
2023/07/13 07:27:27;;;;;;;3.87;1.50;;;;;;;22.12;47.02;98215.06;5073460;28;20594;-84
2023/07/13 07:29:54;;;;;;;3.20;1.37;;;;;;;22.16;47.01;98213.72;5072500;28;20648;-83
2023/07/13 07:32:21;;;;;;;3.07;1.30;;;;;;;22.01;47.71;98225.41;5073341;28;20627;-83
2023/07/13 07:34:47;;;;;;;3.40;1.80;;;;;;;21.97;48.51;98233.00;5072759;28;20625;-83
2023/07/13 07:37:15;;;;;;;1.97;1.40;;;;;;;21.96;50.35;98243.94;5073503;28;20203;-84
2023/07/13 07:39:43;;;;;;;2.27;1.30;;;;;;;22.07;49.66;98236.28;5072237;28;20211;-84
2023/07/13 07:42:10;;;;;;;3.83;1.53;;;;;;;22.19;50.56;98248.34;5072964;28;20214;-84
2023/07/13 07:44:36;;;;;;;4.60;1.50;;;;;;;22.29;49.43;98235.53;5073113;28;20254;-84
2023/07/13 07:47:03;;;;;;;2.90;1.50;;;;;;;22.44;48.02;98233.78;5073280;28;20207;-84
2023/07/13 07:49:30;;;;;;;1.60;0.97;;;;;;;22.60;46.21;98212.13;5072428;28;20697;-85
2023/07/13 07:51:57;;;;;;;3.27;1.37;;;;;;;22.62;45.93;98218.16;5073336;28;20204;-84
2023/07/13 07:54:23;;;;;;;2.60;1.10;;;;;;;22.56;44.66;98205.41;5073068;28;20231;-84
2023/07/13 07:56:51;;;;;;;2.83;1.10;;;;;;;22.48;44.98;98202.78;5073231;28;20212;-84
2023/07/13 07:59:17;;;;;;;3.53;1.30;;;;;;;22.46;45.22;98212.91;5072149;28;20211;-82
2023/07/13 08:01:46;;;;;;;2.03;1.30;;;;;;;22.54;45.26;98207.44;5072809;28;20211;-83
2023/07/13 08:04:12;;;;;;;2.00;1.20;;;;;;;22.50;46.02;98222.28;5072974;28;20255;-83
2023/07/13 08:06:39;;;;;;;1.60;1.13;;;;;;;22.52;44.90;98209.50;5072888;28;20211;-83
2023/07/13 08:09:05;;;;;;;3.40;1.30;;;;;;;22.43;43.92;98210.56;5072628;28;20211;-82
2023/07/13 08:11:32;;;;;;;2.23;1.10;;;;;;;22.37;44.48;98211.22;5072398;28;20582;-83
2023/07/13 08:14:00;;;;;;;3.47;1.50;;;;;;;22.45;46.17;98227.41;5072426;28;20232;-86
2023/07/13 08:16:27;;;;;;;1.70;1.20;;;;;;;22.67;44.01;98206.88;5072791;28;20237;-86
2023/07/13 08:18:53;;;;;;;2.37;1.00;;;;;;;22.84;42.40;98198.47;5072660;28;20213;-85
2023/07/13 08:21:20;;;;;;;2.13;1.13;;;;;;;22.78;43.63;98201.03;5072076;28;20214;-87
2023/07/13 08:23:47;;;;;;;1.73;1.20;;;;;;;22.83;44.40;98222.91;5072292;28;20245;-86
2023/07/13 08:26:13;;;;;;;2.20;1.00;;;;;;;23.04;42.04;98205.03;5072419;28;20678;-87
2023/07/13 08:28:40;;;;;;;2.17;1.10;;;;;;;23.10;42.06;98198.09;5072359;28;20674;-87
2023/07/13 08:31:09;;;;;;;3.00;0.87;;;;;;;23.01;41.57;98199.16;5071474;28;20207;-87
2023/07/13 08:33:36;;;;;;;3.33;1.20;;;;;;;23.04;40.82;98194.25;5072138;28;20246;-87
2023/07/13 08:36:06;;;;;;;2.47;1.00;;;;;;;23.12;41.47;98190.66;5071901;28;20227;-84
2023/07/13 08:38:33;;;;;;;1.70;0.80;;;;;;;23.13;42.29;98201.25;5071867;28;20231;-84
2023/07/13 08:40:59;;;;;;;2.63;1.30;;;;;;;23.21;43.25;98219.22;5071090;28;20638;-84
2023/07/13 08:43:28;;;;;;;1.87;1.20;;;;;;;23.33;43.19;98215.94;5071852;28;20231;-80
2023/07/13 08:46:00;;;;;;;2.63;1.17;;;;;;;23.39;42.76;98212.50;5071793;28;20208;-77
2023/07/13 08:48:31;;;;;;;2.77;1.20;;;;;;;23.32;42.29;98208.84;5072248;28;20203;-76
2023/07/13 08:51:05;;;;;;;3.90;1.30;;;;;;;23.26;41.98;98209.59;5071304;28;20212;-76
2023/07/13 08:53:38;;;;;;;2.10;1.10;;;;;;;23.25;42.66;98213.31;5071077;28;20764;-77
2023/07/13 08:56:10;;;;;;;2.40;1.20;;;;;;;23.42;42.51;98224.78;5071589;28;20231;-78
2023/07/13 08:58:37;;;;;;;2.23;1.40;;;;;;;23.60;42.68;98227.97;5071595;28;20207;-78
2023/07/13 09:01:12;;;;;;;2.43;1.40;;;;;;;23.64;41.56;98208.50;5070735;28;20222;-79
2023/07/13 09:03:47;;;;;;;4.10;1.13;;;;;;;23.79;41.27;98209.38;5071585;28;20267;-78
2023/07/13 09:06:16;;;;;;;2.87;1.10;;;;;;;23.91;41.30;98212.44;5071514;28;20230;-80
2023/07/13 09:08:57;;;;;;;3.47;1.23;;;;;;;23.86;40.76;98204.88;5071705;28;20247;-76
2023/07/13 09:11:37;;;;;;;2.60;1.30;;;;;;;23.77;41.42;98213.28;5071091;28;20211;-85
2023/07/13 09:14:27;;;;;;;4.40;1.27;;;;;;;23.87;41.97;98216.50;5071604;28;20242;-81
2023/07/13 09:16:55;;;;;;;2.17;1.57;;;;;;;24.07;42.88;98233.88;5071558;28;20211;-80
2023/07/13 09:19:32;;;;;;;3.17;1.23;;;;;;;24.15;42.35;98228.34;5070959;28;20545;-83
2023/07/13 09:22:00;;;;;;;4.50;1.20;;;;;;;24.38;41.47;98219.06;5071510;28;20288;-77
2023/07/13 09:24:38;;;;;;;3.77;1.60;;;;;;;24.46;41.58;98221.69;5098484;22;20250;-76
2023/07/13 09:27:17;;;;;;;2.37;1.40;;;;;;;24.46;40.36;98210.88;5091461;28;20260;-76
2023/07/13 09:29:49;;;;;;;3.40;1.27;;;;;;;24.32;40.44;98200.91;5090988;28;20208;-75
2023/07/13 09:32:20;;;;;;;1.47;1.10;;;;;;;24.33;40.41;98208.00;5091183;28;20825;-76
2023/07/13 09:34:54;;;;;;;4.07;1.40;;;;;;;24.33;40.98;98210.69;5091438;28;20241;-76
2023/07/13 09:37:23;;;;;;;4.50;1.50;;;;;;;24.27;40.60;98206.03;5091415;28;20206;-76
2023/07/13 09:39:50;;;;;;;4.07;1.20;;;;;;;24.28;40.49;98202.34;5090841;28;20213;-76
2023/07/13 09:42:18;;;;;;;4.13;1.40;;;;;;;24.43;39.86;98202.28;5091517;28;20225;-75
2023/07/13 09:44:53;;;;;;;2.63;1.37;;;;;;;24.43;39.73;98197.72;5091381;28;20309;-75
2023/07/13 09:47:23;;;;;;;1.37;1.10;;;;;;;24.46;39.89;98200.06;5091420;28;20202;-76
2023/07/13 09:49:58;;;;;;;3.93;1.40;;;;;;;24.42;38.88;98190.66;5089641;28;20214;-75
2023/07/13 09:52:25;;;;;;;1.93;1.17;;;;;;;24.41;39.58;98186.28;5088950;28;20289;-76
2023/07/13 09:54:58;;;;;;;3.73;1.40;;;;;;;24.58;39.85;98187.75;5088247;28;20230;-76
2023/07/13 09:57:27;;;;;;;3.23;1.17;;;;;;;24.59;39.61;98184.00;5088600;28;20214;-75
2023/07/13 09:59:56;;;;;;;2.57;1.30;;;;;;;24.51;39.80;98199.47;5088912;28;20214;-74
2023/07/13 10:02:32;;;;;;;3.57;1.20;;;;;;;24.51;39.62;98203.00;5090348;28;20742;-75
2023/07/13 10:05:03;;;;;;;2.47;1.13;;;;;;;24.26;40.37;98204.38;5092961;28;20222;-75
2023/07/13 10:07:30;;;;;;;4.60;1.47;;;;;;;24.20;40.53;98188.94;5092759;28;20207;-75
2023/07/13 10:10:00;;;;;;;4.20;1.70;;;;;;;24.32;40.64;98200.91;5091969;28;20210;-74
2023/07/13 10:12:28;;;;;;;2.03;1.47;;;;;;;24.51;39.68;98197.59;5092633;28;20206;-72
2023/07/13 10:14:57;;;;;;;4.73;1.60;;;;;;;24.58;40.28;98192.31;5094896;28;20230;-74
2023/07/13 10:17:30;;;;;;;3.13;1.20;;;;;;;24.64;39.95;98196.94;5094939;28;20211;-76
2023/07/13 10:20:04;;;;;;;3.30;1.33;;;;;;;24.55;40.18;98200.75;5091778;28;20210;-76
2023/07/13 10:22:45;;;;;;;4.63;1.40;;;;;;;24.67;40.19;98192.00;5092414;28;20227;-76
2023/07/13 10:25:18;;;;;;;3.57;1.43;;;;;;;24.83;40.70;98201.72;5092267;28;20240;-76
2023/07/13 10:27:47;;;;;;;79.70;6.07;;;;;;;24.99;41.56;98218.50;5094456;28;20679;-77
2023/07/13 10:30:19;;;;;;;8.57;1.80;;;;;;;25.20;40.19;98209.53;5094403;28;20209;-76
2023/07/13 10:32:47;;;;;;;23.40;3.17;;;;;;;25.40;39.52;98200.56;5092389;28;20217;-76
2023/07/13 10:35:17;;;;;;;2.10;1.20;;;;;;;25.41;39.64;98213.06;5091910;28;20222;-76
2023/07/13 10:37:50;;;;;;;2.58;1.30;;;;;;;25.54;40.51;98217.75;5092039;28;20261;-76
2023/07/13 10:40:20;;;;;;;1.83;1.20;;;;;;;25.69;39.06;98200.34;5092614;28;20242;-76
2023/07/13 10:42:51;;;;;;;2.33;1.47;;;;;;;25.73;38.89;98209.72;5094625;28;20210;-78
2023/07/13 10:45:21;;;;;;;169.53;158.73;;;;;;;25.72;37.73;98199.94;5093009;28;20204;-76
2023/07/13 10:47:49;;;;;;;482.10;453.33;;;;;;;25.62;37.82;98194.06;5091797;28;20214;-76
2023/07/13 10:50:21;;;;;;;6.05;3.67;;;;;;;25.66;37.87;98187.19;5090837;28;20225;-76
2023/07/13 10:52:50;;;;;;;3.63;1.92;;;;;;;25.77;38.24;98189.34;5091953;28;20685;-76
2023/07/13 10:55:36;;;;;;;2.03;1.15;;;;;;;25.85;37.67;98189.19;5094334;28;20353;-76
2023/07/13 10:58:12;;;;;;;2.97;1.43;;;;;;;25.99;37.03;98185.56;5093569;28;20305;-75
2023/07/13 11:00:48;;;;;;;3.60;1.27;;;;;;;25.87;37.59;98180.88;5090179;28;20206;-75
2023/07/13 11:03:17;;;;;;;2.37;1.20;;;;;;;25.95;38.22;98187.00;5091384;28;20228;-75
2023/07/13 11:05:50;;;;;;;1.40;1.15;;;;;;;25.90;38.22;98180.50;5091739;28;20589;-75
2023/07/13 11:08:22;;;;;;;3.50;1.50;;;;;;;25.99;38.18;98172.00;5094358;28;20272;-75
2023/07/13 11:10:54;;;;;;;2.65;1.30;;;;;;;26.15;38.83;98179.78;5093541;28;20294;-82
2023/07/13 11:13:58;;;;;;;1.70;1.20;;;;;;;25.98;38.07;98181.16;5093857;28;20230;-84
2023/07/13 11:16:35;;;;;;;3.33;1.30;;;;;;;26.04;36.73;98164.09;5093094;28;20275;-82
2023/07/13 11:19:27;;;;;;;2.40;1.30;;;;;;;25.98;36.83;98162.19;5093767;28;20206;-81
2023/07/13 11:22:12;;;;;;;2.23;1.30;;;;;;;25.96;38.70;98177.81;5093773;28;20214;-82
2023/07/13 11:25:01;;;;;;;3.92;1.42;;;;;;;25.79;36.63;98162.91;5093749;28;20261;-82
2023/07/13 11:27:37;;;;;;;1.37;1.17;;;;;;;25.72;37.20;98151.22;5093993;28;20207;-83
2023/07/13 11:30:22;;;;;;;5.23;1.30;;;;;;;25.57;37.45;98150.50;5093027;28;20202;-82
2023/07/13 11:32:52;;;;;;;2.13;1.30;;;;;;;25.63;36.87;98151.56;5093289;28;20210;-83
2023/07/13 11:35:24;;;;;;;2.70;1.30;;;;;;;25.73;37.19;98152.06;5093593;28;20234;-83
2023/07/13 11:37:52;;;;;;;2.65;1.13;;;;;;;25.85;37.01;98145.03;5093616;28;20211;-82
2023/07/13 11:40:19;;;;;;;2.90;1.27;;;;;;;26.08;36.76;98157.25;5092846;28;20209;-83